Terminal Aerodrome Forecast
Issued by NWS Bismarck, ND

Home | Current Version | Previous Version | Text Only | Print | Product List | Glossary On
Versions: 1 2 3 4 5 6 7 8 9 10 11 12 13 14 15 16 17 18 19
035
FTUS43 KBIS 271730
TAFISN
TAF
KISN 271730Z 2718/2818 16006KT P6SM SKC
     FM280400 14006KT P6SM SKC
     FM281600 21006KT P6SM SCT250=

USA.gov is the U.S. government's official web portal to all federal, state and local government web resources and services.